Time;durP1;ratioP1;P1;durP2;ratioP2;P2;SDS_P1;SDS_P2;PMS_P1;PMS_P2;Temp;Humidity;BMP_temperature;BMP_pressure;BME280_temperature;BME280_humidity;BME280_pressure;Samples;Min_cycle;Max_cycle;Signal;HPM_P1;HPM_P2
2024/02/07 00:00:00;;;;;;;12.55;3.30;;;;;;;;;;5123179;27;20413;-74
2024/02/07 00:02:35;;;;;;;17.50;3.22;;;;;;;;;;5125266;27;20051;-74
2024/02/07 00:05:06;;;;;;;14.85;3.25;;;;;;;;;;5122011;27;20049;-77
2024/02/07 00:07:37;;;;;;;11.88;2.80;;;;;;;;;;5122746;27;20501;-74
2024/02/07 00:10:12;;;;;;;19.02;2.92;;;;;;;;;;5123087;27;20058;-74
2024/02/07 00:12:43;;;;;;;10.25;2.45;;;;;;;;;;5121797;28;20789;-75
2024/02/07 00:15:14;;;;;;;16.83;2.80;;;;;;;;;;5122030;27;20603;-74
2024/02/07 00:17:46;;;;;;;13.20;2.55;;;;;;;;;;5122841;27;20046;-75
2024/02/07 00:20:18;;;;;;;13.60;2.97;;;;;;;;;;5123855;28;20049;-75
2024/02/07 00:22:52;;;;;;;9.25;2.53;;;;;;;;;;5122896;28;20047;-76
2024/02/07 00:25:24;;;;;;;14.43;2.67;;;;;;;;;;5119616;27;20055;-75
2024/02/07 00:27:57;;;;;;;12.70;2.78;;;;;;;;;;5120598;28;20528;-75
2024/02/07 00:30:29;;;;;;;13.02;2.90;;;;;;;;;;5122689;27;20062;-77
2024/02/07 00:33:09;;;;;;;22.38;3.17;;;;;;;;;;5122610;28;20050;-75
2024/02/07 00:35:40;;;;;;;17.17;2.72;;;;;;;;;;5122436;28;20051;-74
2024/02/07 00:38:11;;;;;;;11.35;2.78;;;;;;;;;;5121206;28;20047;-75
2024/02/07 00:40:41;;;;;;;21.40;3.17;;;;;;;;;;5121657;28;20054;-75
2024/02/07 00:43:15;;;;;;;17.58;3.22;;;;;;;;;;5122982;27;20054;-75
2024/02/07 00:45:46;;;;;;;15.25;2.53;;;;;;;;;;5122731;27;20042;-74
2024/02/07 00:48:24;;;;;;;11.88;2.70;;;;;;;;;;5122282;28;20646;-74
2024/02/07 00:50:55;;;;;;;16.15;2.83;;;;;;;;;;5122907;28;20055;-74
2024/02/07 00:53:27;;;;;;;11.20;2.58;;;;;;;;;;5123059;27;20050;-75
2024/02/07 00:55:58;;;;;;;15.25;2.80;;;;;;;;;;5122136;27;20054;-74
2024/02/07 00:58:29;;;;;;;9.60;2.45;;;;;;;;;;5123184;28;20051;-75
2024/02/07 01:01:00;;;;;;;17.33;2.95;;;;;;;;;;5123306;27;20043;-75
2024/02/07 01:03:31;;;;;;;13.38;2.50;;;;;;;;;;5123297;27;20047;-75
2024/02/07 01:06:02;;;;;;;14.50;3.47;;;;;;;;;;5122630;27;20043;-73
2024/02/07 01:08:33;;;;;;;14.43;2.97;;;;;;;;;;5123804;27;20050;-73
2024/02/07 01:11:03;;;;;;;10.63;2.90;;;;;;;;;;5123310;28;20051;-73
2024/02/07 01:13:34;;;;;;;9.40;2.60;;;;;;;;;;5123228;28;20043;-74
2024/02/07 01:16:05;;;;;;;11.32;3.88;;;;;;;;;;5125558;27;20487;-75
2024/02/07 01:18:38;;;;;;;14.68;3.40;;;;;;;;;;5126208;27;20074;-74
2024/02/07 01:21:09;;;;;;;15.55;3.35;;;;;;;;;;5125940;27;20078;-76
2024/02/07 01:23:45;;;;;;;12.48;2.45;;;;;;;;;;5125996;27;20047;-74
2024/02/07 01:26:16;;;;;;;18.33;6.97;;;;;;;;;;5125363;27;20047;-75
2024/02/07 01:28:49;;;;;;;19.88;4.13;;;;;;;;;;5126494;27;20039;-75
2024/02/07 01:31:22;;;;;;;21.30;3.13;;;;;;;;;;5125979;27;20050;-75
2024/02/07 01:33:54;;;;;;;24.27;6.28;;;;;;;;;;5126020;27;20043;-75
2024/02/07 01:36:25;;;;;;;30.70;8.50;;;;;;;;;;5125790;27;20057;-74
2024/02/07 01:38:55;;;;;;;18.75;6.65;;;;;;;;;;5126595;27;20047;-76
2024/02/07 01:41:28;;;;;;;17.95;4.38;;;;;;;;;;5125961;27;20051;-75
2024/02/07 01:43:59;;;;;;;13.68;3.42;;;;;;;;;;5126281;27;20604;-75
2024/02/07 01:46:32;;;;;;;13.45;3.28;;;;;;;;;;5125493;27;20406;-74
2024/02/07 01:49:03;;;;;;;11.95;2.90;;;;;;;;;;5123926;27;20047;-74
2024/02/07 01:51:34;;;;;;;9.45;2.67;;;;;;;;;;5125777;27;20054;-74
2024/02/07 01:54:05;;;;;;;12.60;3.30;;;;;;;;;;5125799;27;20043;-74
2024/02/07 01:56:36;;;;;;;14.30;2.40;;;;;;;;;;5124186;27;20051;-75
2024/02/07 01:59:09;;;;;;;8.35;2.50;;;;;;;;;;5125391;27;20047;-74
2024/02/07 02:01:42;;;;;;;11.05;2.58;;;;;;;;;;5123636;27;20062;-75
2024/02/07 02:04:12;;;;;;;11.20;3.15;;;;;;;;;;5125285;27;20066;-74
2024/02/07 02:06:46;;;;;;;9.27;2.78;;;;;;;;;;5125913;27;20047;-74
2024/02/07 02:09:22;;;;;;;9.57;2.60;;;;;;;;;;5125452;27;20047;-74
2024/02/07 02:11:55;;;;;;;7.15;2.22;;;;;;;;;;5125201;27;20043;-76
2024/02/07 02:14:27;;;;;;;14.77;2.95;;;;;;;;;;5124927;27;20043;-75
2024/02/07 02:16:59;;;;;;;14.93;2.75;;;;;;;;;;5124867;27;20074;-75
2024/02/07 02:19:36;;;;;;;12.15;2.60;;;;;;;;;;5124721;27;20062;-75
2024/02/07 02:22:45;;;;;;;12.80;2.70;;;;;;;;;;5124806;27;20054;-75
2024/02/07 02:25:43;;;;;;;12.15;2.80;;;;;;;;;;5124660;27;20042;-76
2024/02/07 02:28:27;;;;;;;11.88;2.90;;;;;;;;;;5124105;27;20047;-75
2024/02/07 02:31:06;;;;;;;10.85;2.30;;;;;;;;;;5125020;27;20105;-75
2024/02/07 02:33:39;;;;;;;14.25;2.92;;;;;;;;;;5125528;27;20053;-75
2024/02/07 02:36:10;;;;;;;10.60;2.30;;;;;;;;;;5124922;27;20051;-75
2024/02/07 02:38:45;;;;;;;5.32;2.33;;;;;;;;;;5123455;27;20059;-75
2024/02/07 02:41:16;;;;;;;12.40;2.83;;;;;;;;;;5124235;27;20055;-75
2024/02/07 02:43:46;;;;;;;12.35;3.58;;;;;;;;;;5122110;27;20043;-75
2024/02/07 02:46:16;;;;;;;11.70;2.28;;;;;;;;;;5124886;27;20493;-75
2024/02/07 02:48:47;;;;;;;12.88;2.88;;;;;;;;;;5125277;27;20054;-75
2024/02/07 02:51:17;;;;;;;12.63;3.00;;;;;;;;;;5124966;27;20047;-76
2024/02/07 02:53:48;;;;;;;15.50;3.53;;;;;;;;;;5124957;27;20409;-75
2024/02/07 02:56:21;;;;;;;12.00;2.63;;;;;;;;;;5124706;27;20050;-76
2024/02/07 02:58:58;;;;;;;12.73;2.53;;;;;;;;;;5125500;27;20043;-75
2024/02/07 03:01:30;;;;;;;12.65;2.67;;;;;;;;;;5125003;27;20047;-75
2024/02/07 03:04:03;;;;;;;10.20;2.85;;;;;;;;;;5125126;27;20054;-75
2024/02/07 03:06:58;;;;;;;10.82;3.00;;;;;;;;;;5124093;27;20417;-75
2024/02/07 03:09:30;;;;;;;9.52;2.47;;;;;;;;;;5124752;27;20054;-75
2024/02/07 03:12:04;;;;;;;11.60;2.78;;;;;;;;;;5124488;27;20559;-75
2024/02/07 03:14:37;;;;;;;11.15;3.53;;;;;;;;;;5124426;27;20047;-75
2024/02/07 03:17:08;;;;;;;14.52;2.50;;;;;;;;;;5124032;27;20054;-75
2024/02/07 03:19:39;;;;;;;10.30;2.50;;;;;;;;;;5124472;27;20046;-75
2024/02/07 03:22:09;;;;;;;8.75;2.88;;;;;;;;;;5124145;27;20047;-75
2024/02/07 03:24:41;;;;;;;12.02;2.78;;;;;;;;;;5123988;27;20669;-75
2024/02/07 03:27:12;;;;;;;7.22;2.15;;;;;;;;;;5124416;27;20046;-75
2024/02/07 03:29:43;;;;;;;9.63;3.13;;;;;;;;;;5124394;27;20390;-75
2024/02/07 03:32:15;;;;;;;10.23;3.10;;;;;;;;;;5124474;27;20047;-75
2024/02/07 03:34:46;;;;;;;8.68;2.30;;;;;;;;;;5123734;27;20065;-75
2024/02/07 03:37:17;;;;;;;17.20;3.17;;;;;;;;;;5123756;27;20793;-75
2024/02/07 03:39:47;;;;;;;16.23;2.90;;;;;;;;;;5123054;27;20039;-75
2024/02/07 03:42:19;;;;;;;13.48;3.13;;;;;;;;;;5123834;27;20066;-76
2024/02/07 03:44:56;;;;;;;7.43;2.40;;;;;;;;;;5123199;27;20042;-75
2024/02/07 03:47:28;;;;;;;10.32;2.85;;;;;;;;;;5123277;27;20043;-74
2024/02/07 03:49:58;;;;;;;9.73;2.40;;;;;;;;;;5123683;27;20043;-75
2024/02/07 03:52:29;;;;;;;10.25;2.95;;;;;;;;;;5123855;27;20054;-75
2024/02/07 03:55:00;;;;;;;14.88;3.55;;;;;;;;;;5123049;27;20491;-75
2024/02/07 03:57:31;;;;;;;8.45;2.45;;;;;;;;;;5122754;27;20616;-75
2024/02/07 04:00:01;;;;;;;8.52;2.47;;;;;;;;;;5123181;27;20039;-73
2024/02/07 04:02:42;;;;;;;11.73;3.33;;;;;;;;;;5124001;27;20062;-75
2024/02/07 04:05:13;;;;;;;15.55;3.10;;;;;;;;;;5122395;27;20059;-73
2024/02/07 04:07:46;;;;;;;7.55;2.75;;;;;;;;;;5122736;27;20043;-74
2024/02/07 04:10:18;;;;;;;7.82;2.60;;;;;;;;;;5123354;28;20039;-74
2024/02/07 05:17:21;;;;;;;9.73;2.75;;;;;;;;;;5125619;27;20058;-74
2024/02/07 05:19:53;;;;;;;5.90;2.70;;;;;;;;;;5124340;27;20035;-74
2024/02/07 05:22:23;;;;;;;15.85;2.55;;;;;;;;;;5126207;27;20051;-74
2024/02/07 05:24:54;;;;;;;12.73;2.67;;;;;;;;;;5126011;27;20047;-75
2024/02/07 05:27:24;;;;;;;5.22;2.40;;;;;;;;;;5126066;27;20043;-74
2024/02/07 05:29:55;;;;;;;10.25;2.60;;;;;;;;;;5125410;27;20043;-74
2024/02/07 05:32:26;;;;;;;9.25;2.30;;;;;;;;;;5125852;27;20128;-73
2024/02/07 05:34:56;;;;;;;9.60;2.83;;;;;;;;;;5126208;27;20086;-74
2024/02/07 05:37:28;;;;;;;6.70;2.40;;;;;;;;;;5125828;27;20054;-74
2024/02/07 05:40:00;;;;;;;6.53;2.63;;;;;;;;;;5126125;27;20039;-75
2024/02/07 05:42:32;;;;;;;9.15;2.78;;;;;;;;;;5125122;27;20042;-74
2024/02/07 05:45:03;;;;;;;8.25;2.10;;;;;;;;;;5125883;27;20051;-74
2024/02/07 05:47:34;;;;;;;7.95;2.38;;;;;;;;;;5125470;27;20055;-73
2024/02/07 05:50:04;;;;;;;7.25;2.50;;;;;;;;;;5124896;27;20058;-74
2024/02/07 05:52:34;;;;;;;9.23;2.65;;;;;;;;;;5125305;27;20051;-74
2024/02/07 05:55:11;;;;;;;11.35;2.47;;;;;;;;;;5124855;27;20042;-74
2024/02/07 05:57:42;;;;;;;12.48;2.35;;;;;;;;;;5125186;27;20047;-73
2024/02/07 06:00:14;;;;;;;16.02;2.72;;;;;;;;;;5125425;27;20043;-73
2024/02/07 06:02:44;;;;;;;11.40;2.53;;;;;;;;;;5123977;27;20050;-74
2024/02/07 06:05:19;;;;;;;11.40;3.13;;;;;;;;;;5125173;27;20047;-73
2024/02/07 06:07:49;;;;;;;9.77;2.60;;;;;;;;;;5124418;27;20058;-74
2024/02/07 06:10:20;;;;;;;9.45;2.53;;;;;;;;;;5124901;27;20043;-74
2024/02/07 06:12:51;;;;;;;13.88;2.72;;;;;;;;;;5124744;27;20058;-73
2024/02/07 06:15:22;;;;;;;10.48;3.30;;;;;;;;;;5124580;27;20447;-74
2024/02/07 06:17:56;;;;;;;9.40;2.60;;;;;;;;;;5124273;27;20051;-74
2024/02/07 06:20:27;;;;;;;8.70;2.90;;;;;;;;;;5124336;27;20509;-73
2024/02/07 06:22:57;;;;;;;9.18;2.67;;;;;;;;;;5124836;27;20050;-74
2024/02/07 06:25:34;;;;;;;7.38;2.28;;;;;;;;;;5125425;27;20050;-74
2024/02/07 06:28:05;;;;;;;6.22;3.05;;;;;;;;;;5124522;27;20035;-74
2024/02/07 06:30:36;;;;;;;7.15;1.92;;;;;;;;;;5124592;27;20050;-74
2024/02/07 06:33:08;;;;;;;7.78;2.50;;;;;;;;;;5124474;27;20112;-73
2024/02/07 06:35:40;;;;;;;7.22;2.70;;;;;;;;;;5124243;27;20651;-74
2024/02/07 06:38:12;;;;;;;8.68;2.40;;;;;;;;;;5124057;27;20055;-74
2024/02/07 06:40:42;;;;;;;9.52;2.75;;;;;;;;;;5123845;27;20062;-73
2024/02/07 06:43:13;;;;;;;9.02;2.42;;;;;;;;;;5124082;27;20417;-73
2024/02/07 06:45:44;;;;;;;5.03;2.10;;;;;;;;;;5124418;27;20046;-73
2024/02/07 06:48:15;;;;;;;9.48;2.40;;;;;;;;;;5124108;27;20039;-73
2024/02/07 06:50:47;;;;;;;8.38;2.60;;;;;;;;;;5124256;27;20047;-73
2024/02/07 06:53:18;;;;;;;10.25;2.25;;;;;;;;;;5123381;27;20074;-74
2024/02/07 06:55:49;;;;;;;3.65;2.35;;;;;;;;;;5123929;27;20050;-73
2024/02/07 06:58:24;;;;;;;6.32;2.20;;;;;;;;;;5124247;27;20055;-73
2024/02/07 07:00:55;;;;;;;4.65;2.50;;;;;;;;;;5122482;27;20054;-73
2024/02/07 07:03:26;;;;;;;7.65;2.40;;;;;;;;;;5123905;27;20043;-73
2024/02/07 07:05:59;;;;;;;5.68;2.58;;;;;;;;;;5123239;27;20543;-74
2024/02/07 07:08:30;;;;;;;7.78;2.55;;;;;;;;;;5124230;27;20039;-73
2024/02/07 07:11:01;;;;;;;9.05;2.33;;;;;;;;;;5122028;27;20043;-73
2024/02/07 07:13:32;;;;;;;8.00;2.17;;;;;;;;;;5124230;27;20046;-73
2024/02/07 07:16:04;;;;;;;4.85;2.35;;;;;;;;;;5124350;27;20043;-73
2024/02/07 07:18:34;;;;;;;6.15;2.13;;;;;;;;;;5123604;27;20061;-73
2024/02/07 07:21:04;;;;;;;4.85;2.30;;;;;;;;;;5123568;27;20421;-73
2024/02/07 07:23:35;;;;;;;8.43;2.40;;;;;;;;;;5123731;27;20047;-73
2024/02/07 07:26:07;;;;;;;6.18;2.45;;;;;;;;;;5123809;27;20046;-73
2024/02/07 07:28:37;;;;;;;9.35;2.40;;;;;;;;;;5123824;27;20050;-73
2024/02/07 07:31:08;;;;;;;9.23;2.60;;;;;;;;;;5123365;27;20039;-73
2024/02/07 07:33:38;;;;;;;10.05;2.50;;;;;;;;;;5123716;27;20505;-73
2024/02/07 07:36:08;;;;;;;5.05;2.08;;;;;;;;;;5123100;27;20054;-73
2024/02/07 07:38:41;;;;;;;7.55;2.35;;;;;;;;;;5123096;27;20051;-74
2024/02/07 07:41:11;;;;;;;4.18;2.30;;;;;;;;;;5124026;27;20063;-73
2024/02/07 07:43:41;;;;;;;6.05;2.08;;;;;;;;;;5121033;27;20375;-73
2024/02/07 07:46:13;;;;;;;7.95;2.38;;;;;;;;;;5122862;27;20039;-74
2024/02/07 07:48:46;;;;;;;6.22;2.13;;;;;;;;;;5122878;27;20490;-73
2024/02/07 07:51:19;;;;;;;13.60;2.78;;;;;;;;;;5123067;27;20521;-73
2024/02/07 07:53:50;;;;;;;10.60;2.13;;;;;;;;;;5121357;27;20055;-74
2024/02/07 07:56:21;;;;;;;10.35;2.80;;;;;;;;;;5122538;27;20062;-74
2024/02/07 07:58:52;;;;;;;12.05;2.53;;;;;;;;;;5123675;27;20054;-74
2024/02/07 08:01:22;;;;;;;4.32;2.17;;;;;;;;;;5123264;27;20039;-73
2024/02/07 08:03:53;;;;;;;9.52;2.60;;;;;;;;;;5123769;27;20055;-74
2024/02/07 08:06:23;;;;;;;9.32;2.28;;;;;;;;;;5123296;27;20544;-73
2024/02/07 08:08:53;;;;;;;8.52;2.67;;;;;;;;;;5122830;28;20047;-73
2024/02/07 08:11:24;;;;;;;7.43;2.80;;;;;;;;;;5123644;28;20051;-73
2024/02/07 08:13:54;;;;;;;12.27;2.60;;;;;;;;;;5123275;27;20063;-73
2024/02/07 08:16:24;;;;;;;6.72;2.55;;;;;;;;;;5123344;27;20047;-75
2024/02/07 08:18:55;;;;;;;7.60;2.25;;;;;;;;;;5123604;27;20055;-73
2024/02/07 08:21:26;;;;;;;5.32;2.40;;;;;;;;;;5129061;27;20062;-74
2024/02/07 08:23:55;;;;;;;7.03;3.08;;;;;;;;;;5123254;27;20608;-73
2024/02/07 08:26:25;;;;;;;8.75;2.25;;;;;;;;;;5127796;27;20053;-73
2024/02/07 08:28:57;;;;;;;8.73;3.03;;;;;;;;;;5129911;27;20421;-73
2024/02/07 08:31:28;;;;;;;9.93;2.55;;;;;;;;;;5127165;27;20047;-73
2024/02/07 08:33:58;;;;;;;7.60;2.83;;;;;;;;;;5127086;27;20078;-73
2024/02/07 08:36:29;;;;;;;11.25;2.40;;;;;;;;;;5128131;27;20058;-73
2024/02/07 08:38:59;;;;;;;6.43;2.13;;;;;;;;;;5130436;27;20055;-73
2024/02/07 08:41:30;;;;;;;5.93;2.30;;;;;;;;;;5126493;27;20058;-73
2024/02/07 08:44:02;;;;;;;5.35;2.45;;;;;;;;;;5128066;27;20047;-73
2024/02/07 08:46:31;;;;;;;4.75;2.10;;;;;;;;;;5126788;27;20058;-75
2024/02/07 08:49:02;;;;;;;4.68;2.08;;;;;;;;;;5126282;27;20405;-73
2024/02/07 08:51:32;;;;;;;5.47;2.20;;;;;;;;;;5127310;27;20062;-73
2024/02/07 08:54:05;;;;;;;8.13;3.00;;;;;;;;;;5126383;27;20043;-73
2024/02/07 08:56:35;;;;;;;12.95;2.28;;;;;;;;;;5127707;27;20051;-73
2024/02/07 08:59:04;;;;;;;5.95;2.10;;;;;;;;;;5126553;27;20039;-73
2024/02/07 09:01:34;;;;;;;3.13;1.67;;;;;;;;;;5126023;27;20058;-73
2024/02/07 09:04:06;;;;;;;7.80;2.50;;;;;;;;;;5126584;27;20046;-74
2024/02/07 09:06:37;;;;;;;8.32;2.17;;;;;;;;;;5127250;27;20051;-73
2024/02/07 09:09:07;;;;;;;8.85;2.10;;;;;;;;;;5126352;27;20060;-73
2024/02/07 09:11:37;;;;;;;7.25;2.63;;;;;;;;;;5126124;27;20054;-74
2024/02/07 09:14:07;;;;;;;9.52;3.25;;;;;;;;;;5126376;27;20058;-73
2024/02/07 09:16:37;;;;;;;11.82;3.28;;;;;;;;;;5129010;27;20047;-73
2024/02/07 09:19:07;;;;;;;10.20;4.07;;;;;;;;;;5125544;27;20425;-74
2024/02/07 09:21:38;;;;;;;7.97;3.25;;;;;;;;;;5125949;27;20070;-73
2024/02/07 09:24:09;;;;;;;11.43;2.97;;;;;;;;;;5126366;27;20054;-73
2024/02/07 09:26:40;;;;;;;12.52;2.85;;;;;;;;;;5130008;27;20604;-75
2024/02/07 09:29:10;;;;;;;6.55;2.80;;;;;;;;;;5126860;27;20058;-74
2024/02/07 09:31:40;;;;;;;7.38;2.60;;;;;;;;;;5126265;27;20536;-73
2024/02/07 09:34:10;;;;;;;9.95;2.70;;;;;;;;;;5125880;27;20073;-74
2024/02/07 09:36:42;;;;;;;8.98;2.30;;;;;;;;;;5125799;27;20062;-73
2024/02/07 09:39:12;;;;;;;7.93;2.85;;;;;;;;;;5126042;27;20401;-78
2024/02/07 09:41:44;;;;;;;3.67;2.10;;;;;;;;;;5126191;27;20066;-74
2024/02/07 09:44:18;;;;;;;9.43;2.65;;;;;;;;;;5127310;27;20061;-74
2024/02/07 09:46:53;;;;;;;12.48;2.50;;;;;;;;;;5125636;27;20098;-74
2024/02/07 09:49:24;;;;;;;10.15;3.05;;;;;;;;;;5129670;27;20505;-73
2024/02/07 09:51:55;;;;;;;8.48;3.28;;;;;;;;;;5125764;27;20391;-73
2024/02/07 09:54:27;;;;;;;7.28;2.90;;;;;;;;;;5127285;27;20058;-74
2024/02/07 09:56:58;;;;;;;7.85;2.40;;;;;;;;;;5126237;27;20054;-74
2024/02/07 09:59:30;;;;;;;5.47;2.63;;;;;;;;;;5131477;27;20063;-74
2024/02/07 10:02:02;;;;;;;8.25;2.70;;;;;;;;;;5129579;27;20054;-74
2024/02/07 10:04:38;;;;;;;8.57;2.42;;;;;;;;;;5125068;27;20039;-74
2024/02/07 10:07:13;;;;;;;9.88;3.33;;;;;;;;;;5125569;27;20047;-74
2024/02/07 10:09:44;;;;;;;14.68;3.00;;;;;;;;;;5124792;27;20074;-74
2024/02/07 10:12:14;;;;;;;15.55;3.65;;;;;;;;;;5125105;27;20497;-73
2024/02/07 10:14:46;;;;;;;20.88;4.43;;;;;;;;;;5124483;27;20676;-73
2024/02/07 10:17:18;;;;;;;17.17;4.25;;;;;;;;;;5125089;27;20047;-74
2024/02/07 10:19:48;;;;;;;18.73;5.82;;;;;;;;;;5125020;27;20046;-75
2024/02/07 10:22:20;;;;;;;12.45;3.28;;;;;;;;;;5124644;27;20035;-74
2024/02/07 10:24:51;;;;;;;11.48;4.65;;;;;;;;;;5124953;27;20043;-74
2024/02/07 10:27:22;;;;;;;24.45;4.70;;;;;;;;;;5124646;27;20050;-74
2024/02/07 10:30:04;;;;;;;8.82;3.40;;;;;;;;;;5124470;27;20051;-73
2024/02/07 10:32:36;;;;;;;11.40;3.42;;;;;;;;;;5124618;27;20047;-73
2024/02/07 10:35:10;;;;;;;10.05;3.22;;;;;;;;;;5124452;27;20043;-72
2024/02/07 10:37:42;;;;;;;12.80;3.22;;;;;;;;;;5123980;27;20148;-73
2024/02/07 10:40:13;;;;;;;7.80;2.75;;;;;;;;;;5124434;27;20058;-73
2024/02/07 10:42:54;;;;;;;14.55;3.40;;;;;;;;;;5124884;27;20047;-73
2024/02/07 10:45:26;;;;;;;10.80;3.67;;;;;;;;;;5123876;27;20418;-73
2024/02/07 10:47:58;;;;;;;11.38;2.60;;;;;;;;;;5123472;27;20038;-72
2024/02/07 10:50:29;;;;;;;7.65;1.90;;;;;;;;;;5123892;27;20054;-78
2024/02/07 10:53:00;;;;;;;6.78;1.83;;;;;;;;;;5124164;27;20052;-74
2024/02/07 10:55:32;;;;;;;11.82;2.22;;;;;;;;;;5124049;27;20055;-73
2024/02/07 10:58:06;;;;;;;16.13;2.80;;;;;;;;;;5124085;27;20043;-73
2024/02/07 11:00:37;;;;;;;9.90;1.98;;;;;;;;;;5122039;27;20051;-74
2024/02/07 11:03:09;;;;;;;8.52;1.90;;;;;;;;;;5123523;27;20039;-73
2024/02/07 11:05:41;;;;;;;5.70;1.80;;;;;;;;;;5124301;27;20047;-75
2024/02/07 11:08:12;;;;;;;11.88;2.30;;;;;;;;;;5123719;27;20043;-74
2024/02/07 11:10:43;;;;;;;16.40;2.63;;;;;;;;;;5123881;27;20058;-75
2024/02/07 11:13:13;;;;;;;7.93;2.50;;;;;;;;;;5123537;27;20043;-75
2024/02/07 11:15:45;;;;;;;12.38;2.25;;;;;;;;;;5123734;27;20069;-75
2024/02/07 11:18:15;;;;;;;5.65;1.90;;;;;;;;;;5123506;27;20070;-75
2024/02/07 11:20:47;;;;;;;9.73;2.13;;;;;;;;;;5123738;27;20391;-75
2024/02/07 11:23:32;;;;;;;8.85;2.28;;;;;;;;;;5123362;27;20047;-78
2024/02/07 11:26:05;;;;;;;10.25;2.58;;;;;;;;;;5123457;27;20547;-75
2024/02/07 11:28:37;;;;;;;14.95;3.13;;;;;;;;;;5123268;27;20486;-75
2024/02/07 11:31:08;;;;;;;5.43;2.00;;;;;;;;;;5123624;27;20050;-75
2024/02/07 11:33:40;;;;;;;7.95;2.67;;;;;;;;;;5123402;27;20494;-75
2024/02/07 11:36:22;;;;;;;8.85;2.33;;;;;;;;;;5122943;27;20429;-75
2024/02/07 11:38:58;;;;;;;7.05;2.08;;;;;;;;;;5123382;27;20050;-75
2024/02/07 11:41:29;;;;;;;12.30;4.65;;;;;;;;;;5122804;27;20062;-75
2024/02/07 11:44:07;;;;;;;11.48;2.33;;;;;;;;;;5122002;27;20058;-76
2024/02/07 11:46:59;;;;;;;11.77;2.55;;;;;;;;;;5102642;28;20051;-75
2024/02/07 11:49:37;;;;;;;6.82;2.30;;;;;;;;;;5102392;28;20050;-75
2024/02/07 11:52:12;;;;;;;12.30;2.10;;;;;;;;;;5102683;28;20070;-75
2024/02/07 11:54:42;;;;;;;8.13;2.40;;;;;;;;;;5102762;28;20051;-75
2024/02/07 11:57:15;;;;;;;10.07;1.80;;;;;;;;;;5102437;28;20058;-75
2024/02/07 11:59:46;;;;;;;12.10;2.65;;;;;;;;;;5100090;28;20052;-75
2024/02/07 12:02:18;;;;;;;12.30;2.78;;;;;;;;;;5101498;28;20507;-76
2024/02/07 12:04:48;;;;;;;8.15;2.25;;;;;;;;;;5103013;28;20505;-77
2024/02/07 12:07:19;;;;;;;5.88;1.90;;;;;;;;;;5102593;28;20036;-74
2024/02/07 12:09:51;;;;;;;15.35;1.73;;;;;;;;;;5102410;28;20035;-75
2024/02/07 12:12:21;;;;;;;7.68;1.77;;;;;;;;;;5102641;28;20044;-79
2024/02/07 12:14:51;;;;;;;9.27;1.90;;;;;;;;;;5101928;28;20510;-74
2024/02/07 12:17:22;;;;;;;7.07;1.90;;;;;;;;;;5102286;28;20498;-75
2024/02/07 12:20:00;;;;;;;12.32;2.42;;;;;;;;;;5101284;28;20055;-84
2024/02/07 12:22:31;;;;;;;10.95;2.13;;;;;;;;;;5102432;28;20051;-76
2024/02/07 12:25:04;;;;;;;9.95;1.80;;;;;;;;;;5101938;28;20058;-76
2024/02/07 12:27:37;;;;;;;12.07;2.03;;;;;;;;;;5100055;28;20039;-75
2024/02/07 12:30:08;;;;;;;10.65;1.73;;;;;;;;;;5101823;28;20040;-73
2024/02/07 12:32:39;;;;;;;3.35;1.63;;;;;;;;;;5100738;28;20047;-74
2024/02/07 12:35:09;;;;;;;8.45;1.70;;;;;;;;;;5101244;28;20058;-74
2024/02/07 12:37:41;;;;;;;7.18;1.83;;;;;;;;;;5104364;28;20066;-76
2024/02/07 12:40:21;;;;;;;3.88;1.52;;;;;;;;;;5101557;28;20070;-76
2024/02/07 12:42:52;;;;;;;6.38;1.60;;;;;;;;;;5101810;28;20074;-75
2024/02/07 12:45:25;;;;;;;5.30;1.90;;;;;;;;;;5102403;28;20498;-75
2024/02/07 12:47:57;;;;;;;5.95;1.45;;;;;;;;;;5102189;28;20113;-76
2024/02/07 12:50:27;;;;;;;7.68;2.15;;;;;;;;;;5102577;28;20040;-76
2024/02/07 12:52:58;;;;;;;6.13;1.85;;;;;;;;;;5102270;28;20047;-76
2024/02/07 12:55:28;;;;;;;6.18;1.73;;;;;;;;;;5102384;28;20434;-75
2024/02/07 12:58:05;;;;;;;9.40;2.03;;;;;;;;;;5102173;28;20047;-73
2024/02/07 13:00:35;;;;;;;6.88;2.00;;;;;;;;;;5101259;28;20406;-75
2024/02/07 13:03:07;;;;;;;7.82;2.40;;;;;;;;;;5102473;28;20040;-75
2024/02/07 13:05:39;;;;;;;7.03;1.70;;;;;;;;;;5102235;28;20502;-80
2024/02/07 13:08:11;;;;;;;10.07;2.30;;;;;;;;;;5101674;28;20044;-75
2024/02/07 13:10:45;;;;;;;8.73;2.00;;;;;;;;;;5102089;28;20054;-76
2024/02/07 13:13:16;;;;;;;6.07;2.25;;;;;;;;;;5105768;28;20047;-76
2024/02/07 13:15:47;;;;;;;6.53;2.63;;;;;;;;;;5106195;28;20506;-76
2024/02/07 13:18:17;;;;;;;13.52;3.38;;;;;;;;;;5105320;28;20052;-75
2024/02/07 13:20:47;;;;;;;10.20;2.80;;;;;;;;;;5105966;28;20506;-77
2024/02/07 13:23:21;;;;;;;7.35;2.65;;;;;;;;;;5104893;28;20051;-77
2024/02/07 13:25:57;;;;;;;6.07;2.30;;;;;;;;;;5105651;28;20047;-76
2024/02/07 13:28:28;;;;;;;8.43;3.05;;;;;;;;;;5105989;28;20044;-75
2024/02/07 13:31:03;;;;;;;4.93;2.38;;;;;;;;;;5105637;28;20047;-80
2024/02/07 13:33:34;;;;;;;8.05;3.83;;;;;;;;;;5105383;28;20070;-76
2024/02/07 13:36:06;;;;;;;6.47;2.55;;;;;;;;;;5105335;28;20044;-76
2024/02/07 13:38:39;;;;;;;6.55;2.13;;;;;;;;;;5104624;28;20686;-76
2024/02/07 13:41:09;;;;;;;7.57;2.08;;;;;;;;;;5103518;28;20059;-79
2024/02/07 13:43:40;;;;;;;3.72;2.00;;;;;;;;;;5105345;28;20047;-79
2024/02/07 13:46:11;;;;;;;6.38;2.83;;;;;;;;;;5105282;28;20046;-76
2024/02/07 13:48:43;;;;;;;5.95;2.47;;;;;;;;;;5105940;28;20051;-77
2024/02/07 13:51:14;;;;;;;3.58;2.30;;;;;;;;;;5105477;28;20047;-76
2024/02/07 13:53:45;;;;;;;6.15;3.15;;;;;;;;;;5105407;28;20047;-76
2024/02/07 13:56:16;;;;;;;11.52;3.10;;;;;;;;;;5104626;28;20044;-83
2024/02/07 13:59:07;;;;;;;6.40;2.67;;;;;;;;;;5103923;28;20043;-76
2024/02/07 14:01:39;;;;;;;7.20;2.53;;;;;;;;;;5104738;28;20074;-76
2024/02/07 14:04:12;;;;;;;6.97;2.70;;;;;;;;;;5105034;28;20051;-76
2024/02/07 14:06:44;;;;;;;7.45;2.88;;;;;;;;;;5102267;28;20048;-79
2024/02/07 14:09:16;;;;;;;7.40;2.90;;;;;;;;;;5102353;28;20063;-74
2024/02/07 14:11:47;;;;;;;7.43;3.08;;;;;;;;;;5104604;28;20048;-74
2024/02/07 14:14:18;;;;;;;6.03;2.97;;;;;;;;;;5105500;28;20051;-76
2024/02/07 14:16:50;;;;;;;8.98;3.60;;;;;;;;;;5104520;28;20039;-74
2024/02/07 14:19:21;;;;;;;3.78;2.80;;;;;;;;;;5104350;28;20054;-75
2024/02/07 14:21:54;;;;;;;7.75;2.63;;;;;;;;;;5102172;28;20063;-73
2024/02/07 14:24:30;;;;;;;8.68;2.95;;;;;;;;;;5104174;28;20764;-76
2024/02/07 14:27:02;;;;;;;7.55;2.83;;;;;;;;;;5103255;28;20046;-76
2024/02/07 14:29:33;;;;;;;6.97;3.15;;;;;;;;;;5103779;28;20055;-76
2024/02/07 14:32:03;;;;;;;7.28;2.95;;;;;;;;;;5103252;28;20040;-79
2024/02/07 14:34:35;;;;;;;9.00;3.28;;;;;;;;;;5104274;28;20048;-76
2024/02/07 14:37:23;;;;;;;8.23;3.38;;;;;;;;;;5101939;28;20083;-76
2024/02/07 14:40:08;;;;;;;8.35;3.22;;;;;;;;;;5103848;28;20540;-77
2024/02/07 14:42:45;;;;;;;11.15;3.28;;;;;;;;;;5104047;28;20044;-76
2024/02/07 14:45:17;;;;;;;6.18;4.07;;;;;;;;;;5106458;27;20047;-76
2024/02/07 14:47:48;;;;;;;6.95;3.10;;;;;;;;;;5113069;27;20047;-74
2024/02/07 14:50:18;;;;;;;8.40;2.80;;;;;;;;;;5106076;27;20044;-75
2024/02/07 14:52:50;;;;;;;6.95;3.00;;;;;;;;;;5101994;28;20054;-75
2024/02/07 14:55:21;;;;;;;7.45;3.08;;;;;;;;;;5108751;27;20751;-76
2024/02/07 14:57:52;;;;;;;6.75;3.20;;;;;;;;;;5124196;27;20050;-76
2024/02/07 15:00:22;;;;;;;14.27;3.40;;;;;;;;;;5125383;27;20050;-75
2024/02/07 15:02:54;;;;;;;13.65;3.33;;;;;;;;;;5124857;27;20058;-78
2024/02/07 15:05:24;;;;;;;10.85;3.60;;;;;;;;;;5124218;27;20050;-76
2024/02/07 15:07:57;;;;;;;9.13;3.40;;;;;;;;;;5122737;27;20062;-78
2024/02/07 15:10:27;;;;;;;8.40;3.05;;;;;;;;;;5124067;27;20046;-76
2024/02/07 15:12:59;;;;;;;7.85;3.30;;;;;;;;;;5123327;27;20039;-76
2024/02/07 15:15:30;;;;;;;11.90;3.67;;;;;;;;;;5114205;27;20047;-75
2024/02/07 15:18:00;;;;;;;9.15;3.70;;;;;;;;;;5102949;28;20042;-75
2024/02/07 15:20:31;;;;;;;7.63;3.45;;;;;;;;;;5101159;28;20052;-74
2024/02/07 15:23:02;;;;;;;6.60;3.47;;;;;;;;;;5102872;28;20035;-76
2024/02/07 15:25:34;;;;;;;7.72;3.35;;;;;;;;;;5103618;28;20043;-79
2024/02/07 15:28:05;;;;;;;8.50;3.22;;;;;;;;;;5103875;28;20056;-76
2024/02/07 15:30:36;;;;;;;6.43;3.08;;;;;;;;;;5100700;28;20063;-77
2024/02/07 15:33:07;;;;;;;6.03;3.10;;;;;;;;;;5102603;28;20043;-74
2024/02/07 15:35:39;;;;;;;5.80;3.13;;;;;;;;;;5102853;28;20047;-75
2024/02/07 15:38:12;;;;;;;8.13;3.13;;;;;;;;;;5102495;28;20498;-78
2024/02/07 15:40:42;;;;;;;8.52;3.53;;;;;;;;;;5102362;28;20059;-75
2024/02/07 15:43:12;;;;;;;6.95;3.22;;;;;;;;;;5101646;28;20042;-74
2024/02/07 15:45:46;;;;;;;8.55;3.28;;;;;;;;;;5100849;28;20059;-74
2024/02/07 15:48:17;;;;;;;8.27;3.35;;;;;;;;;;5102480;28;20054;-75
2024/02/07 15:50:48;;;;;;;6.22;3.40;;;;;;;;;;5102591;28;20098;-77
2024/02/07 15:53:18;;;;;;;10.32;3.30;;;;;;;;;;5102848;28;20047;-77
2024/02/07 15:55:48;;;;;;;8.50;3.50;;;;;;;;;;5101693;28;20067;-76
2024/02/07 15:58:22;;;;;;;6.32;3.25;;;;;;;;;;5103614;28;20055;-75
2024/02/07 16:00:57;;;;;;;5.28;3.38;;;;;;;;;;5102503;28;20410;-81
2024/02/07 16:03:27;;;;;;;6.40;3.22;;;;;;;;;;5102096;28;20043;-75
2024/02/07 16:06:00;;;;;;;6.68;3.25;;;;;;;;;;5102188;28;20047;-75
2024/02/07 16:08:30;;;;;;;5.43;3.03;;;;;;;;;;5102257;28;20051;-75
2024/02/07 16:11:03;;;;;;;10.10;3.35;;;;;;;;;;5102417;28;21087;-75